createdAt,value
2022-08-28T00:09:40.638Z,22.67
2022-08-28T00:31:26.457Z,22.42
2022-08-28T00:53:12.300Z,22.27
2022-08-28T01:15:03.567Z,22.26
2022-08-28T01:36:49.417Z,22.17
2022-08-28T01:58:38.281Z,22.11
2022-08-28T02:20:24.751Z,22.04
2022-08-28T02:42:10.863Z,22.15
2022-08-28T03:03:56.845Z,22.11
2022-08-28T03:25:42.571Z,21.85
2022-08-28T03:47:29.670Z,21.94
2022-08-28T04:09:15.849Z,21.88
2022-08-28T04:31:01.837Z,22.00
2022-08-28T04:52:48.046Z,22.09
2022-08-28T05:14:34.178Z,22.15
2022-08-28T05:36:22.162Z,22.30
2022-08-28T05:58:21.922Z,22.53
2022-08-28T06:20:09.510Z,22.69
2022-08-28T06:41:55.371Z,23.35
2022-08-28T07:03:42.593Z,24.04
2022-08-28T07:25:30.757Z,24.44
2022-08-28T07:47:17.422Z,24.49
2022-08-28T08:09:03.185Z,25.16
2022-08-28T08:30:49.339Z,26.48
2022-08-28T08:52:44.059Z,27.47
2022-08-28T09:14:38.456Z,28.23
2022-08-28T09:36:29.503Z,31.56
2022-08-28T09:58:15.493Z,31.43
2022-08-28T10:20:09.649Z,31.58
2022-08-28T10:41:59.746Z,29.12
2022-08-28T11:03:49.884Z,28.26
2022-08-28T11:25:45.646Z,27.11
2022-08-28T11:47:56.579Z,26.16
2022-08-28T12:09:45.967Z,28.80
2022-08-28T12:32:15.097Z,27.51
2022-08-28T12:54:03.091Z,25.90
2022-08-28T13:15:49.445Z,25.41
2022-08-28T13:37:47.921Z,24.68
2022-08-28T13:59:34.001Z,23.82
2022-08-28T14:21:19.785Z,22.92
2022-08-28T14:43:05.691Z,22.52
2022-08-28T15:04:51.709Z,22.14
2022-08-28T15:26:37.951Z,21.87
2022-08-28T15:48:23.865Z,21.69
2022-08-28T16:10:13.530Z,21.47
2022-08-28T16:31:59.337Z,21.24
2022-08-28T16:53:45.995Z,20.95
2022-08-28T17:15:31.793Z,20.81
2022-08-28T17:37:20.639Z,20.86
2022-08-28T17:59:06.638Z,20.79
2022-08-28T18:20:52.428Z,20.77
2022-08-28T18:42:40.105Z,20.81
2022-08-28T19:04:27.210Z,20.84
2022-08-28T19:26:13.801Z,20.94
2022-08-28T19:48:00.275Z,21.02
2022-08-28T20:09:47.331Z,21.14
2022-08-28T20:31:33.315Z,21.10
2022-08-28T20:53:36.791Z,21.10
2022-08-28T21:15:24.088Z,20.87
2022-08-28T21:37:09.844Z,20.54
2022-08-28T21:58:57.632Z,20.29
2022-08-28T22:20:59.069Z,19.91
2022-08-28T22:42:45.113Z,19.51
2022-08-28T23:04:31.109Z,19.20
2022-08-28T23:26:18.306Z,18.89
2022-08-28T23:48:04.398Z,18.49
